sensor_id;sensor_type;location;lat;lon;timestamp;P1;durP1;ratioP1;P2;durP2;ratioP2
26530;SDS011;14201;43.188;24.160;2023-06-19T00:00:19;13.52;;;8.55;;
26530;SDS011;14201;43.188;24.160;2023-06-19T00:02:45;10.38;;;8.05;;
26530;SDS011;14201;43.188;24.160;2023-06-19T00:05:12;10.20;;;7.90;;
26530;SDS011;14201;43.188;24.160;2023-06-19T00:07:38;10.48;;;7.85;;
26530;SDS011;14201;43.188;24.160;2023-06-19T00:10:03;9.55;;;8.18;;
26530;SDS011;14201;43.188;24.160;2023-06-19T00:12:30;9.05;;;8.15;;
26530;SDS011;14201;43.188;24.160;2023-06-19T00:14:55;8.95;;;7.65;;
26530;SDS011;14201;43.188;24.160;2023-06-19T00:17:21;8.63;;;7.32;;
26530;SDS011;14201;43.188;24.160;2023-06-19T00:19:47;11.48;;;7.15;;
26530;SDS011;14201;43.188;24.160;2023-06-19T00:22:14;10.77;;;7.22;;
26530;SDS011;14201;43.188;24.160;2023-06-19T00:24:40;9.40;;;7.18;;
26530;SDS011;14201;43.188;24.160;2023-06-19T00:27:05;13.18;;;8.00;;
26530;SDS011;14201;43.188;24.160;2023-06-19T00:29:31;9.07;;;7.68;;
26530;SDS011;14201;43.188;24.160;2023-06-19T00:32:00;10.40;;;7.03;;
26530;SDS011;14201;43.188;24.160;2023-06-19T00:34:28;10.52;;;7.07;;
26530;SDS011;14201;43.188;24.160;2023-06-19T00:36:54;8.13;;;7.40;;
26530;SDS011;14201;43.188;24.160;2023-06-19T00:39:24;12.52;;;7.32;;
26530;SDS011;14201;43.188;24.160;2023-06-19T00:41:53;9.68;;;7.18;;
26530;SDS011;14201;43.188;24.160;2023-06-19T00:44:19;11.27;;;6.50;;
26530;SDS011;14201;43.188;24.160;2023-06-19T00:46:45;8.50;;;7.60;;
26530;SDS011;14201;43.188;24.160;2023-06-19T00:49:11;9.05;;;6.90;;
26530;SDS011;14201;43.188;24.160;2023-06-19T00:51:37;10.00;;;6.32;;
26530;SDS011;14201;43.188;24.160;2023-06-19T00:54:03;8.38;;;7.28;;
26530;SDS011;14201;43.188;24.160;2023-06-19T00:56:29;10.18;;;7.03;;
26530;SDS011;14201;43.188;24.160;2023-06-19T00:58:55;11.05;;;7.07;;
26530;SDS011;14201;43.188;24.160;2023-06-19T01:01:21;9.30;;;6.80;;
26530;SDS011;14201;43.188;24.160;2023-06-19T01:03:49;9.63;;;6.70;;
26530;SDS011;14201;43.188;24.160;2023-06-19T01:06:22;9.30;;;7.28;;
26530;SDS011;14201;43.188;24.160;2023-06-19T01:08:56;10.23;;;7.05;;
26530;SDS011;14201;43.188;24.160;2023-06-19T01:11:29;16.65;;;7.85;;
26530;SDS011;14201;43.188;24.160;2023-06-19T01:14:12;12.65;;;7.78;;
26530;SDS011;14201;43.188;24.160;2023-06-19T01:16:40;9.95;;;7.68;;
26530;SDS011;14201;43.188;24.160;2023-06-19T01:19:08;8.60;;;7.70;;
26530;SDS011;14201;43.188;24.160;2023-06-19T01:21:35;9.13;;;7.20;;
26530;SDS011;14201;43.188;24.160;2023-06-19T01:24:02;11.20;;;7.00;;
26530;SDS011;14201;43.188;24.160;2023-06-19T01:26:27;9.13;;;7.25;;
26530;SDS011;14201;43.188;24.160;2023-06-19T01:28:53;10.45;;;7.15;;
26530;SDS011;14201;43.188;24.160;2023-06-19T01:31:21;10.23;;;7.40;;
26530;SDS011;14201;43.188;24.160;2023-06-19T01:33:51;9.70;;;7.55;;
26530;SDS011;14201;43.188;24.160;2023-06-19T01:36:19;9.48;;;7.35;;
26530;SDS011;14201;43.188;24.160;2023-06-19T01:38:46;8.65;;;7.25;;
26530;SDS011;14201;43.188;24.160;2023-06-19T01:41:14;11.05;;;7.43;;
26530;SDS011;14201;43.188;24.160;2023-06-19T01:43:41;9.98;;;7.10;;
26530;SDS011;14201;43.188;24.160;2023-06-19T01:46:07;11.88;;;7.55;;
26530;SDS011;14201;43.188;24.160;2023-06-19T01:48:34;13.68;;;7.72;;
26530;SDS011;14201;43.188;24.160;2023-06-19T01:51:01;16.67;;;7.80;;
26530;SDS011;14201;43.188;24.160;2023-06-19T01:53:29;13.00;;;8.23;;
26530;SDS011;14201;43.188;24.160;2023-06-19T01:55:56;12.68;;;8.50;;
26530;SDS011;14201;43.188;24.160;2023-06-19T01:58:23;11.43;;;8.35;;
26530;SDS011;14201;43.188;24.160;2023-06-19T02:00:48;10.77;;;7.75;;
26530;SDS011;14201;43.188;24.160;2023-06-19T02:03:14;11.70;;;7.75;;
26530;SDS011;14201;43.188;24.160;2023-06-19T02:05:40;13.65;;;7.50;;
26530;SDS011;14201;43.188;24.160;2023-06-19T02:08:05;15.88;;;8.63;;
26530;SDS011;14201;43.188;24.160;2023-06-19T02:10:31;12.85;;;8.38;;
26530;SDS011;14201;43.188;24.160;2023-06-19T02:12:57;9.98;;;7.45;;
26530;SDS011;14201;43.188;24.160;2023-06-19T02:15:23;12.80;;;7.68;;
26530;SDS011;14201;43.188;24.160;2023-06-19T02:17:49;13.13;;;7.88;;
26530;SDS011;14201;43.188;24.160;2023-06-19T02:20:22;12.43;;;8.38;;
26530;SDS011;14201;43.188;24.160;2023-06-19T02:22:52;13.57;;;7.82;;
26530;SDS011;14201;43.188;24.160;2023-06-19T02:25:17;10.50;;;7.93;;
26530;SDS011;14201;43.188;24.160;2023-06-19T02:27:44;15.18;;;8.57;;
26530;SDS011;14201;43.188;24.160;2023-06-19T02:30:10;11.00;;;8.82;;
26530;SDS011;14201;43.188;24.160;2023-06-19T02:32:36;12.13;;;8.38;;
26530;SDS011;14201;43.188;24.160;2023-06-19T02:35:02;12.48;;;8.20;;
26530;SDS011;14201;43.188;24.160;2023-06-19T02:37:29;14.30;;;8.77;;
26530;SDS011;14201;43.188;24.160;2023-06-19T02:39:55;12.43;;;8.68;;
26530;SDS011;14201;43.188;24.160;2023-06-19T02:42:20;12.45;;;8.90;;
26530;SDS011;14201;43.188;24.160;2023-06-19T02:44:46;14.40;;;9.50;;
26530;SDS011;14201;43.188;24.160;2023-06-19T02:47:12;13.35;;;9.02;;
26530;SDS011;14201;43.188;24.160;2023-06-19T02:49:37;14.85;;;8.88;;
26530;SDS011;14201;43.188;24.160;2023-06-19T02:52:03;10.60;;;8.35;;
26530;SDS011;14201;43.188;24.160;2023-06-19T02:54:29;9.48;;;7.95;;
26530;SDS011;14201;43.188;24.160;2023-06-19T02:56:55;9.80;;;8.40;;
26530;SDS011;14201;43.188;24.160;2023-06-19T02:59:21;11.55;;;8.35;;
26530;SDS011;14201;43.188;24.160;2023-06-19T03:01:47;14.18;;;8.55;;
26530;SDS011;14201;43.188;24.160;2023-06-19T03:04:12;11.77;;;8.65;;
26530;SDS011;14201;43.188;24.160;2023-06-19T03:06:38;12.98;;;8.13;;
26530;SDS011;14201;43.188;24.160;2023-06-19T03:09:05;12.48;;;8.10;;
26530;SDS011;14201;43.188;24.160;2023-06-19T03:11:37;16.48;;;8.85;;
26530;SDS011;14201;43.188;24.160;2023-06-19T03:14:04;14.73;;;8.30;;
26530;SDS011;14201;43.188;24.160;2023-06-19T03:16:32;11.35;;;8.52;;
26530;SDS011;14201;43.188;24.160;2023-06-19T03:18:59;13.07;;;9.27;;
26530;SDS011;14201;43.188;24.160;2023-06-19T03:21:25;12.55;;;8.30;;
26530;SDS011;14201;43.188;24.160;2023-06-19T03:23:51;10.80;;;8.32;;
26530;SDS011;14201;43.188;24.160;2023-06-19T03:26:18;13.55;;;8.45;;
26530;SDS011;14201;43.188;24.160;2023-06-19T03:28:44;11.88;;;8.50;;
26530;SDS011;14201;43.188;24.160;2023-06-19T03:31:09;13.38;;;8.48;;
26530;SDS011;14201;43.188;24.160;2023-06-19T03:33:35;9.65;;;8.20;;
26530;SDS011;14201;43.188;24.160;2023-06-19T03:36:00;10.70;;;7.75;;
26530;SDS011;14201;43.188;24.160;2023-06-19T03:38:26;12.70;;;8.30;;
26530;SDS011;14201;43.188;24.160;2023-06-19T03:40:52;9.32;;;8.10;;
26530;SDS011;14201;43.188;24.160;2023-06-19T03:43:17;13.02;;;8.85;;
26530;SDS011;14201;43.188;24.160;2023-06-19T03:45:43;10.55;;;8.00;;
26530;SDS011;14201;43.188;24.160;2023-06-19T03:48:08;12.40;;;8.10;;
26530;SDS011;14201;43.188;24.160;2023-06-19T03:50:34;14.10;;;8.05;;
26530;SDS011;14201;43.188;24.160;2023-06-19T03:53:00;10.05;;;8.18;;
26530;SDS011;14201;43.188;24.160;2023-06-19T03:55:25;18.17;;;8.60;;
26530;SDS011;14201;43.188;24.160;2023-06-19T03:57:51;13.27;;;9.40;;
26530;SDS011;14201;43.188;24.160;2023-06-19T04:00:18;10.68;;;8.95;;
26530;SDS011;14201;43.188;24.160;2023-06-19T04:02:44;11.57;;;9.55;;
26530;SDS011;14201;43.188;24.160;2023-06-19T04:05:13;16.35;;;9.77;;
26530;SDS011;14201;43.188;24.160;2023-06-19T04:07:43;12.88;;;9.00;;
26530;SDS011;14201;43.188;24.160;2023-06-19T04:10:08;14.05;;;8.98;;
26530;SDS011;14201;43.188;24.160;2023-06-19T04:12:36;9.82;;;8.45;;
26530;SDS011;14201;43.188;24.160;2023-06-19T04:15:02;17.27;;;9.25;;
26530;SDS011;14201;43.188;24.160;2023-06-19T04:17:28;10.85;;;8.32;;
26530;SDS011;14201;43.188;24.160;2023-06-19T04:19:53;11.02;;;8.68;;
26530;SDS011;14201;43.188;24.160;2023-06-19T04:22:19;12.73;;;8.82;;
26530;SDS011;14201;43.188;24.160;2023-06-19T04:24:45;11.35;;;8.05;;
26530;SDS011;14201;43.188;24.160;2023-06-19T04:27:10;14.80;;;8.18;;
26530;SDS011;14201;43.188;24.160;2023-06-19T04:29:36;13.30;;;7.80;;
26530;SDS011;14201;43.188;24.160;2023-06-19T04:32:02;18.73;;;8.23;;
26530;SDS011;14201;43.188;24.160;2023-06-19T04:34:36;8.98;;;7.32;;
26530;SDS011;14201;43.188;24.160;2023-06-19T04:37:02;9.68;;;6.60;;
26530;SDS011;14201;43.188;24.160;2023-06-19T04:39:27;15.43;;;6.53;;
26530;SDS011;14201;43.188;24.160;2023-06-19T04:41:53;9.63;;;6.63;;
26530;SDS011;14201;43.188;24.160;2023-06-19T04:44:19;10.73;;;5.95;;
26530;SDS011;14201;43.188;24.160;2023-06-19T04:46:44;12.70;;;6.20;;
26530;SDS011;14201;43.188;24.160;2023-06-19T04:49:10;10.48;;;5.72;;
26530;SDS011;14201;43.188;24.160;2023-06-19T04:51:35;10.23;;;6.07;;
26530;SDS011;14201;43.188;24.160;2023-06-19T04:54:01;12.77;;;6.20;;
26530;SDS011;14201;43.188;24.160;2023-06-19T04:56:27;11.15;;;6.32;;
26530;SDS011;14201;43.188;24.160;2023-06-19T04:58:54;13.48;;;5.88;;
26530;SDS011;14201;43.188;24.160;2023-06-19T05:01:21;22.20;;;6.40;;
26530;SDS011;14201;43.188;24.160;2023-06-19T05:03:52;10.13;;;5.82;;
26530;SDS011;14201;43.188;24.160;2023-06-19T07:56:12;6.03;;;3.38;;
26530;SDS011;14201;43.188;24.160;2023-06-19T07:58:38;5.15;;;3.50;;
26530;SDS011;14201;43.188;24.160;2023-06-19T08:01:03;3.38;;;2.90;;
26530;SDS011;14201;43.188;24.160;2023-06-19T08:03:29;3.70;;;3.05;;
26530;SDS011;14201;43.188;24.160;2023-06-19T08:05:55;5.57;;;3.30;;
26530;SDS011;14201;43.188;24.160;2023-06-19T08:08:21;7.80;;;3.88;;
26530;SDS011;14201;43.188;24.160;2023-06-19T08:10:47;5.30;;;3.40;;
26530;SDS011;14201;43.188;24.160;2023-06-19T08:13:13;4.95;;;3.47;;
26530;SDS011;14201;43.188;24.160;2023-06-19T08:15:38;5.35;;;3.97;;
26530;SDS011;14201;43.188;24.160;2023-06-19T08:18:04;4.28;;;3.88;;
26530;SDS011;14201;43.188;24.160;2023-06-19T08:20:30;4.55;;;3.83;;
26530;SDS011;14201;43.188;24.160;2023-06-19T08:22:55;4.10;;;3.70;;
26530;SDS011;14201;43.188;24.160;2023-06-19T08:25:21;4.22;;;3.80;;
26530;SDS011;14201;43.188;24.160;2023-06-19T08:27:47;6.57;;;4.38;;
26530;SDS011;14201;43.188;24.160;2023-06-19T08:30:13;4.28;;;3.88;;
26530;SDS011;14201;43.188;24.160;2023-06-19T08:32:39;7.60;;;3.78;;
26530;SDS011;14201;43.188;24.160;2023-06-19T08:35:04;7.68;;;4.75;;
26530;SDS011;14201;43.188;24.160;2023-06-19T08:37:31;4.95;;;4.45;;
26530;SDS011;14201;43.188;24.160;2023-06-19T08:39:56;6.07;;;4.70;;
26530;SDS011;14201;43.188;24.160;2023-06-19T08:42:22;5.15;;;4.60;;
26530;SDS011;14201;43.188;24.160;2023-06-19T08:44:48;5.93;;;4.38;;
26530;SDS011;14201;43.188;24.160;2023-06-19T08:47:14;6.05;;;4.22;;
26530;SDS011;14201;43.188;24.160;2023-06-19T08:49:40;5.60;;;4.57;;
26530;SDS011;14201;43.188;24.160;2023-06-19T08:52:06;5.30;;;4.45;;
26530;SDS011;14201;43.188;24.160;2023-06-19T08:54:33;5.60;;;4.38;;
26530;SDS011;14201;43.188;24.160;2023-06-19T08:57:02;5.10;;;4.60;;
26530;SDS011;14201;43.188;24.160;2023-06-19T08:59:29;8.15;;;5.45;;
26530;SDS011;14201;43.188;24.160;2023-06-19T09:01:56;5.82;;;5.25;;
26530;SDS011;14201;43.188;24.160;2023-06-19T09:04:24;5.35;;;4.85;;
26530;SDS011;14201;43.188;24.160;2023-06-19T09:06:55;7.72;;;4.53;;
26530;SDS011;14201;43.188;24.160;2023-06-19T09:09:23;7.15;;;4.70;;
26530;SDS011;14201;43.188;24.160;2023-06-19T09:12:02;5.50;;;5.00;;
26530;SDS011;14201;43.188;24.160;2023-06-19T09:17:06;5.45;;;4.47;;
26530;SDS011;14201;43.188;24.160;2023-06-19T09:19:38;6.10;;;5.07;;
26530;SDS011;14201;43.188;24.160;2023-06-19T09:22:08;11.25;;;5.00;;
26530;SDS011;14201;43.188;24.160;2023-06-19T09:24:40;8.52;;;5.32;;
26530;SDS011;14201;43.188;24.160;2023-06-19T09:29:42;7.13;;;4.90;;
26530;SDS011;14201;43.188;24.160;2023-06-19T09:32:18;6.05;;;5.22;;
26530;SDS011;14201;43.188;24.160;2023-06-19T09:34:44;5.90;;;5.30;;
26530;SDS011;14201;43.188;24.160;2023-06-19T09:37:10;6.38;;;5.38;;
26530;SDS011;14201;43.188;24.160;2023-06-19T09:39:39;23.15;;;10.38;;
26530;SDS011;14201;43.188;24.160;2023-06-19T09:42:06;7.05;;;5.28;;
26530;SDS011;14201;43.188;24.160;2023-06-19T09:44:35;6.32;;;5.70;;
26530;SDS011;14201;43.188;24.160;2023-06-19T09:47:09;7.30;;;4.80;;
26530;SDS011;14201;43.188;24.160;2023-06-19T09:49:44;46.35;;;13.30;;
26530;SDS011;14201;43.188;24.160;2023-06-19T09:52:14;6.22;;;4.85;;
26530;SDS011;14201;43.188;24.160;2023-06-19T09:54:41;24.42;;;9.20;;
26530;SDS011;14201;43.188;24.160;2023-06-19T09:57:10;19.33;;;7.60;;
26530;SDS011;14201;43.188;24.160;2023-06-19T09:59:36;7.13;;;4.70;;
26530;SDS011;14201;43.188;24.160;2023-06-19T10:04:42;5.00;;;4.60;;
26530;SDS011;14201;43.188;24.160;2023-06-19T10:07:15;4.85;;;4.35;;
26530;SDS011;14201;43.188;24.160;2023-06-19T10:09:54;8.48;;;4.70;;
26530;SDS011;14201;43.188;24.160;2023-06-19T10:12:20;5.57;;;4.32;;
26530;SDS011;14201;43.188;24.160;2023-06-19T10:14:46;6.18;;;3.97;;
26530;SDS011;14201;43.188;24.160;2023-06-19T10:17:16;4.75;;;4.35;;
26530;SDS011;14201;43.188;24.160;2023-06-19T10:19:49;5.30;;;4.70;;
26530;SDS011;14201;43.188;24.160;2023-06-19T10:22:21;5.07;;;4.45;;
26530;SDS011;14201;43.188;24.160;2023-06-19T10:24:50;5.82;;;4.72;;
26530;SDS011;14201;43.188;24.160;2023-06-19T10:27:20;5.28;;;4.32;;
26530;SDS011;14201;43.188;24.160;2023-06-19T10:29:51;4.82;;;4.32;;
26530;SDS011;14201;43.188;24.160;2023-06-19T10:32:19;5.55;;;4.05;;
26530;SDS011;14201;43.188;24.160;2023-06-19T10:34:45;5.60;;;4.30;;
26530;SDS011;14201;43.188;24.160;2023-06-19T10:37:12;6.80;;;4.18;;
26530;SDS011;14201;43.188;24.160;2023-06-19T10:39:38;5.25;;;4.25;;
26530;SDS011;14201;43.188;24.160;2023-06-19T10:42:07;5.43;;;4.30;;
26530;SDS011;14201;43.188;24.160;2023-06-19T10:44:33;8.05;;;3.97;;
26530;SDS011;14201;43.188;24.160;2023-06-19T10:47:00;5.63;;;4.43;;
26530;SDS011;14201;43.188;24.160;2023-06-19T10:49:26;5.78;;;4.30;;
26530;SDS011;14201;43.188;24.160;2023-06-19T10:51:53;4.68;;;4.05;;
26530;SDS011;14201;43.188;24.160;2023-06-19T10:54:24;4.68;;;4.22;;
26530;SDS011;14201;43.188;24.160;2023-06-19T10:56:50;6.05;;;4.05;;
26530;SDS011;14201;43.188;24.160;2023-06-19T10:59:16;5.45;;;4.47;;
26530;SDS011;14201;43.188;24.160;2023-06-19T11:01:43;5.72;;;4.20;;
26530;SDS011;14201;43.188;24.160;2023-06-19T11:04:11;6.97;;;3.83;;
26530;SDS011;14201;43.188;24.160;2023-06-19T11:06:39;6.47;;;4.30;;
26530;SDS011;14201;43.188;24.160;2023-06-19T11:09:06;10.10;;;4.35;;
26530;SDS011;14201;43.188;24.160;2023-06-19T11:14:06;5.80;;;4.43;;
26530;SDS011;14201;43.188;24.160;2023-06-19T11:16:33;5.90;;;4.28;;
26530;SDS011;14201;43.188;24.160;2023-06-19T11:18:59;12.00;;;4.47;;
26530;SDS011;14201;43.188;24.160;2023-06-19T11:21:29;6.38;;;4.35;;
26530;SDS011;14201;43.188;24.160;2023-06-19T11:24:00;8.15;;;4.55;;
26530;SDS011;14201;43.188;24.160;2023-06-19T11:26:26;4.82;;;4.30;;
26530;SDS011;14201;43.188;24.160;2023-06-19T11:28:52;4.72;;;4.32;;
26530;SDS011;14201;43.188;24.160;2023-06-19T11:31:17;5.30;;;4.80;;
26530;SDS011;14201;43.188;24.160;2023-06-19T11:34:00;5.85;;;4.93;;
26530;SDS011;14201;43.188;24.160;2023-06-19T11:36:28;8.18;;;5.28;;
26530;SDS011;14201;43.188;24.160;2023-06-19T11:38:55;7.65;;;5.50;;
26530;SDS011;14201;43.188;24.160;2023-06-19T11:41:27;6.35;;;5.20;;
26530;SDS011;14201;43.188;24.160;2023-06-19T11:44:00;4.70;;;4.20;;
26530;SDS011;14201;43.188;24.160;2023-06-19T11:46:30;8.18;;;5.03;;
26530;SDS011;14201;43.188;24.160;2023-06-19T11:49:06;5.22;;;4.80;;
26530;SDS011;14201;43.188;24.160;2023-06-19T11:51:37;5.45;;;4.63;;
26530;SDS011;14201;43.188;24.160;2023-06-19T11:54:06;6.05;;;4.95;;
26530;SDS011;14201;43.188;24.160;2023-06-19T11:56:36;6.35;;;4.75;;
26530;SDS011;14201;43.188;24.160;2023-06-19T11:59:03;5.20;;;4.70;;
26530;SDS011;14201;43.188;24.160;2023-06-19T12:01:31;6.63;;;4.75;;
26530;SDS011;14201;43.188;24.160;2023-06-19T12:03:58;7.17;;;4.87;;
26530;SDS011;14201;43.188;24.160;2023-06-19T12:06:24;5.28;;;4.78;;
26530;SDS011;14201;43.188;24.160;2023-06-19T12:08:50;5.85;;;4.85;;
26530;SDS011;14201;43.188;24.160;2023-06-19T12:11:15;5.40;;;4.90;;
26530;SDS011;14201;43.188;24.160;2023-06-19T12:13:41;6.00;;;4.30;;
26530;SDS011;14201;43.188;24.160;2023-06-19T12:16:07;5.47;;;4.53;;
26530;SDS011;14201;43.188;24.160;2023-06-19T12:18:33;6.72;;;4.47;;
26530;SDS011;14201;43.188;24.160;2023-06-19T12:20:59;5.20;;;4.75;;
26530;SDS011;14201;43.188;24.160;2023-06-19T12:23:25;5.95;;;4.70;;
26530;SDS011;14201;43.188;24.160;2023-06-19T12:25:50;7.10;;;4.40;;
26530;SDS011;14201;43.188;24.160;2023-06-19T12:28:16;5.78;;;4.57;;
26530;SDS011;14201;43.188;24.160;2023-06-19T12:30:44;4.68;;;4.28;;
26530;SDS011;14201;43.188;24.160;2023-06-19T12:33:11;4.43;;;4.03;;
26530;SDS011;14201;43.188;24.160;2023-06-19T12:35:39;11.13;;;4.55;;
26530;SDS011;14201;43.188;24.160;2023-06-19T12:38:06;4.88;;;4.10;;
26530;SDS011;14201;43.188;24.160;2023-06-19T12:40:32;4.50;;;4.10;;
26530;SDS011;14201;43.188;24.160;2023-06-19T12:42:58;4.47;;;4.07;;
26530;SDS011;14201;43.188;24.160;2023-06-19T12:45:24;6.93;;;3.72;;
26530;SDS011;14201;43.188;24.160;2023-06-19T12:47:50;5.25;;;3.60;;
26530;SDS011;14201;43.188;24.160;2023-06-19T12:50:15;5.20;;;4.00;;
26530;SDS011;14201;43.188;24.160;2023-06-19T12:52:41;4.47;;;3.70;;
26530;SDS011;14201;43.188;24.160;2023-06-19T12:55:07;6.55;;;3.40;;
26530;SDS011;14201;43.188;24.160;2023-06-19T12:57:33;4.10;;;3.50;;
26530;SDS011;14201;43.188;24.160;2023-06-19T12:59:59;6.82;;;2.95;;
26530;SDS011;14201;43.188;24.160;2023-06-19T13:02:24;4.60;;;3.17;;
26530;SDS011;14201;43.188;24.160;2023-06-19T13:04:52;4.85;;;2.60;;
26530;SDS011;14201;43.188;24.160;2023-06-19T13:07:17;6.75;;;2.83;;
26530;SDS011;14201;43.188;24.160;2023-06-19T13:09:46;3.40;;;2.75;;
26530;SDS011;14201;43.188;24.160;2023-06-19T13:12:11;3.17;;;2.75;;
26530;SDS011;14201;43.188;24.160;2023-06-19T13:14:37;3.85;;;2.95;;
26530;SDS011;14201;43.188;24.160;2023-06-19T13:17:04;7.82;;;2.85;;
26530;SDS011;14201;43.188;24.160;2023-06-19T13:19:30;7.80;;;2.90;;
26530;SDS011;14201;43.188;24.160;2023-06-19T13:21:55;3.90;;;2.80;;
26530;SDS011;14201;43.188;24.160;2023-06-19T13:24:21;8.82;;;3.15;;
26530;SDS011;14201;43.188;24.160;2023-06-19T13:26:46;5.45;;;3.17;;
26530;SDS011;14201;43.188;24.160;2023-06-19T13:29:12;7.70;;;3.00;;
26530;SDS011;14201;43.188;24.160;2023-06-19T13:31:38;3.78;;;2.47;;
26530;SDS011;14201;43.188;24.160;2023-06-19T13:34:04;7.50;;;2.72;;
26530;SDS011;14201;43.188;24.160;2023-06-19T13:36:29;4.40;;;2.97;;
26530;SDS011;14201;43.188;24.160;2023-06-19T13:38:55;3.97;;;2.88;;
26530;SDS011;14201;43.188;24.160;2023-06-19T13:41:21;3.88;;;2.92;;
26530;SDS011;14201;43.188;24.160;2023-06-19T13:43:50;3.33;;;2.80;;
26530;SDS011;14201;43.188;24.160;2023-06-19T13:46:18;3.92;;;2.90;;
26530;SDS011;14201;43.188;24.160;2023-06-19T13:48:49;4.43;;;3.08;;
26530;SDS011;14201;43.188;24.160;2023-06-19T13:51:20;5.20;;;3.20;;
26530;SDS011;14201;43.188;24.160;2023-06-19T13:53:46;5.25;;;2.80;;
26530;SDS011;14201;43.188;24.160;2023-06-19T13:56:12;5.60;;;3.08;;
26530;SDS011;14201;43.188;24.160;2023-06-19T13:58:38;4.90;;;2.80;;
26530;SDS011;14201;43.188;24.160;2023-06-19T14:01:04;5.63;;;3.20;;
26530;SDS011;14201;43.188;24.160;2023-06-19T14:03:31;3.83;;;3.20;;
26530;SDS011;14201;43.188;24.160;2023-06-19T14:05:56;4.30;;;2.83;;
26530;SDS011;14201;43.188;24.160;2023-06-19T14:08:22;4.75;;;2.65;;
26530;SDS011;14201;43.188;24.160;2023-06-19T14:10:49;3.72;;;3.03;;
26530;SDS011;14201;43.188;24.160;2023-06-19T14:13:16;4.63;;;3.10;;
26530;SDS011;14201;43.188;24.160;2023-06-19T14:15:41;3.92;;;2.75;;
26530;SDS011;14201;43.188;24.160;2023-06-19T14:18:07;6.75;;;2.80;;
26530;SDS011;14201;43.188;24.160;2023-06-19T14:20:33;5.95;;;3.20;;
26530;SDS011;14201;43.188;24.160;2023-06-19T14:22:59;3.50;;;3.08;;
26530;SDS011;14201;43.188;24.160;2023-06-19T14:25:24;4.28;;;3.10;;
26530;SDS011;14201;43.188;24.160;2023-06-19T14:27:50;3.05;;;2.50;;
26530;SDS011;14201;43.188;24.160;2023-06-19T14:30:16;9.40;;;3.17;;
26530;SDS011;14201;43.188;24.160;2023-06-19T14:32:41;5.10;;;2.90;;
26530;SDS011;14201;43.188;24.160;2023-06-19T14:35:07;3.90;;;3.05;;
26530;SDS011;14201;43.188;24.160;2023-06-19T14:37:33;3.88;;;2.95;;
26530;SDS011;14201;43.188;24.160;2023-06-19T14:39:58;6.45;;;2.65;;
26530;SDS011;14201;43.188;24.160;2023-06-19T14:42:24;7.30;;;2.92;;
26530;SDS011;14201;43.188;24.160;2023-06-19T14:44:50;6.10;;;3.20;;
26530;SDS011;14201;43.188;24.160;2023-06-19T14:47:15;5.20;;;3.20;;
26530;SDS011;14201;43.188;24.160;2023-06-19T14:49:41;4.13;;;3.10;;
26530;SDS011;14201;43.188;24.160;2023-06-19T14:52:07;4.90;;;3.20;;
26530;SDS011;14201;43.188;24.160;2023-06-19T14:54:33;6.60;;;3.15;;
26530;SDS011;14201;43.188;24.160;2023-06-19T14:56:58;3.85;;;3.13;;
26530;SDS011;14201;43.188;24.160;2023-06-19T14:59:24;3.22;;;2.90;;
26530;SDS011;14201;43.188;24.160;2023-06-19T15:01:50;6.70;;;2.63;;
26530;SDS011;14201;43.188;24.160;2023-06-19T15:04:16;4.55;;;3.00;;
26530;SDS011;14201;43.188;24.160;2023-06-19T15:06:42;7.07;;;2.95;;
26530;SDS011;14201;43.188;24.160;2023-06-19T15:09:08;4.57;;;3.08;;
26530;SDS011;14201;43.188;24.160;2023-06-19T15:11:33;4.00;;;3.15;;
26530;SDS011;14201;43.188;24.160;2023-06-19T15:13:59;3.42;;;3.08;;
26530;SDS011;14201;43.188;24.160;2023-06-19T15:16:25;3.58;;;2.95;;
26530;SDS011;14201;43.188;24.160;2023-06-19T15:18:50;5.13;;;2.88;;
26530;SDS011;14201;43.188;24.160;2023-06-19T15:21:17;4.35;;;2.92;;
26530;SDS011;14201;43.188;24.160;2023-06-19T15:23:43;5.90;;;3.70;;
26530;SDS011;14201;43.188;24.160;2023-06-19T15:26:09;4.57;;;3.15;;
26530;SDS011;14201;43.188;24.160;2023-06-19T15:28:34;7.38;;;3.33;;
26530;SDS011;14201;43.188;24.160;2023-06-19T15:31:03;4.45;;;2.63;;
26530;SDS011;14201;43.188;24.160;2023-06-19T15:33:30;3.60;;;3.08;;
26530;SDS011;14201;43.188;24.160;2023-06-19T15:35:55;4.15;;;2.67;;
26530;SDS011;14201;43.188;24.160;2023-06-19T15:38:21;4.05;;;3.20;;
26530;SDS011;14201;43.188;24.160;2023-06-19T15:40:47;4.75;;;3.15;;
26530;SDS011;14201;43.188;24.160;2023-06-19T15:43:12;3.42;;;2.85;;
26530;SDS011;14201;43.188;24.160;2023-06-19T15:45:38;4.68;;;2.80;;
26530;SDS011;14201;43.188;24.160;2023-06-19T15:48:04;3.75;;;3.00;;
26530;SDS011;14201;43.188;24.160;2023-06-19T15:50:30;3.47;;;3.17;;
26530;SDS011;14201;43.188;24.160;2023-06-19T15:52:58;17.60;;;12.18;;
26530;SDS011;14201;43.188;24.160;2023-06-19T15:55:24;26.63;;;21.10;;
26530;SDS011;14201;43.188;24.160;2023-06-19T15:57:50;3.83;;;3.42;;
26530;SDS011;14201;43.188;24.160;2023-06-19T16:00:16;3.40;;;3.10;;
26530;SDS011;14201;43.188;24.160;2023-06-19T16:02:42;5.82;;;3.42;;
26530;SDS011;14201;43.188;24.160;2023-06-19T16:05:13;4.50;;;3.08;;
26530;SDS011;14201;43.188;24.160;2023-06-19T16:07:40;3.92;;;3.10;;
26530;SDS011;14201;43.188;24.160;2023-06-19T16:10:06;3.90;;;2.92;;
26530;SDS011;14201;43.188;24.160;2023-06-19T16:12:33;3.58;;;2.80;;
26530;SDS011;14201;43.188;24.160;2023-06-19T16:14:59;5.32;;;3.40;;
26530;SDS011;14201;43.188;24.160;2023-06-19T16:17:24;4.72;;;3.20;;
26530;SDS011;14201;43.188;24.160;2023-06-19T16:19:50;7.03;;;3.50;;
26530;SDS011;14201;43.188;24.160;2023-06-19T16:22:15;5.93;;;3.50;;
26530;SDS011;14201;43.188;24.160;2023-06-19T16:24:41;6.30;;;3.50;;
26530;SDS011;14201;43.188;24.160;2023-06-19T16:27:07;5.35;;;3.30;;
26530;SDS011;14201;43.188;24.160;2023-06-19T16:29:32;4.50;;;3.15;;
26530;SDS011;14201;43.188;24.160;2023-06-19T16:31:58;4.47;;;3.03;;
26530;SDS011;14201;43.188;24.160;2023-06-19T16:34:24;4.38;;;3.33;;
26530;SDS011;14201;43.188;24.160;2023-06-19T16:36:50;5.15;;;3.85;;
26530;SDS011;14201;43.188;24.160;2023-06-19T16:39:15;4.53;;;3.13;;
26530;SDS011;14201;43.188;24.160;2023-06-19T16:41:42;5.38;;;3.38;;
26530;SDS011;14201;43.188;24.160;2023-06-19T16:44:11;4.15;;;3.33;;
26530;SDS011;14201;43.188;24.160;2023-06-19T16:46:37;4.15;;;3.33;;
26530;SDS011;14201;43.188;24.160;2023-06-19T16:49:03;4.15;;;3.40;;
26530;SDS011;14201;43.188;24.160;2023-06-19T16:51:29;6.72;;;3.45;;
26530;SDS011;14201;43.188;24.160;2023-06-19T16:53:55;6.30;;;3.20;;
26530;SDS011;14201;43.188;24.160;2023-06-19T16:56:21;4.53;;;3.25;;
26530;SDS011;14201;43.188;24.160;2023-06-19T16:58:47;4.85;;;3.65;;
26530;SDS011;14201;43.188;24.160;2023-06-19T17:01:12;5.00;;;3.30;;
26530;SDS011;14201;43.188;24.160;2023-06-19T17:03:38;4.13;;;3.22;;
26530;SDS011;14201;43.188;24.160;2023-06-19T17:06:04;4.40;;;3.20;;
26530;SDS011;14201;43.188;24.160;2023-06-19T17:08:30;4.80;;;3.50;;
26530;SDS011;14201;43.188;24.160;2023-06-19T17:10:55;4.05;;;3.33;;
26530;SDS011;14201;43.188;24.160;2023-06-19T17:13:21;4.68;;;3.58;;
26530;SDS011;14201;43.188;24.160;2023-06-19T17:15:47;3.85;;;3.13;;
26530;SDS011;14201;43.188;24.160;2023-06-19T17:18:12;4.50;;;3.50;;
26530;SDS011;14201;43.188;24.160;2023-06-19T17:20:38;5.63;;;3.35;;
26530;SDS011;14201;43.188;24.160;2023-06-19T17:23:04;4.40;;;3.20;;
26530;SDS011;14201;43.188;24.160;2023-06-19T17:25:30;3.55;;;3.03;;
26530;SDS011;14201;43.188;24.160;2023-06-19T17:27:56;6.35;;;3.30;;